createdAt,value
2018-07-12T00:00:08.773Z,101322.30
2018-07-12T00:02:36.275Z,101323.61
2018-07-12T00:05:03.815Z,101314.98
2018-07-12T00:07:31.353Z,101315.41
2018-07-12T00:09:58.844Z,101312.05
2018-07-12T00:12:26.344Z,101317.64
2018-07-12T00:14:53.830Z,101313.05
2018-07-12T00:17:21.369Z,101310.00
2018-07-12T00:19:48.833Z,101311.13
2018-07-12T00:22:16.352Z,101316.11
2018-07-12T00:24:43.868Z,101311.97
2018-07-12T00:27:11.388Z,101314.81
2018-07-12T00:29:38.862Z,101309.59
2018-07-12T00:32:06.328Z,101308.75
2018-07-12T00:34:33.816Z,101308.92
2018-07-12T00:37:01.303Z,101308.08
2018-07-12T00:39:28.850Z,101308.08
2018-07-12T00:41:56.315Z,101300.65
2018-07-12T00:44:23.807Z,101300.65
2018-07-12T00:46:51.284Z,101291.75
2018-07-12T00:49:18.782Z,101301.48
2018-07-12T00:51:46.309Z,101302.02
2018-07-12T00:54:13.904Z,101299.27
2018-07-12T00:56:41.418Z,101298.43
2018-07-12T00:59:09.072Z,101301.48
2018-07-12T01:01:36.599Z,101300.11
2018-07-12T01:04:04.243Z,101302.95
2018-07-12T01:06:31.721Z,101303.54
2018-07-12T01:08:59.239Z,101305.76
2018-07-12T01:11:26.679Z,101296.65
2018-07-12T01:13:54.188Z,101302.41
2018-07-12T01:16:22.597Z,101308.75
2018-07-12T01:18:50.093Z,101313.44
2018-07-12T01:21:17.716Z,101310.44
2018-07-12T01:23:45.403Z,101312.19
2018-07-12T01:26:12.871Z,101314.73
2018-07-12T01:28:40.429Z,101315.66
2018-07-12T01:31:08.012Z,101309.89
2018-07-12T01:33:35.508Z,101312.41
2018-07-12T01:36:03.025Z,101309.20
2018-07-12T01:38:30.533Z,101300.76
2018-07-12T01:40:58.040Z,101289.52
2018-07-12T01:43:25.532Z,101297.33
2018-07-12T01:45:53.001Z,101294.62
2018-07-12T01:48:20.513Z,101283.91
2018-07-12T01:50:48.051Z,101285.88
2018-07-12T01:53:15.549Z,101283.12
2018-07-12T01:55:43.239Z,101281.82
2018-07-12T01:58:10.820Z,101273.84
2018-07-12T02:00:38.465Z,101277.44
2018-07-12T02:03:05.957Z,101276.06
2018-07-12T02:05:33.470Z,101277.14
2018-07-12T02:08:01.221Z,101273.84
2018-07-12T02:10:28.739Z,101280.73
2018-07-12T02:12:56.227Z,101283.28
2018-07-12T02:15:23.773Z,101277.81
2018-07-12T02:17:51.296Z,101280.03
2018-07-12T02:20:18.824Z,101276.76
2018-07-12T02:22:46.295Z,101274.84
2018-07-12T02:25:13.890Z,101270.08
2018-07-12T02:27:41.465Z,101268.11
2018-07-12T02:30:08.993Z,101261.14
2018-07-12T02:32:36.490Z,101269.62
2018-07-12T02:35:04.208Z,101265.48
2018-07-12T02:37:31.700Z,101261.34
2018-07-12T02:39:59.273Z,101249.19
2018-07-12T02:42:26.802Z,101250.56
2018-07-12T02:44:54.337Z,101239.99
2018-07-12T02:47:21.816Z,101234.73
2018-07-12T02:49:49.337Z,101238.24
2018-07-12T02:52:16.914Z,101234.89
2018-07-12T02:54:44.484Z,101235.06
2018-07-12T02:57:11.966Z,101238.83
2018-07-12T02:59:39.514Z,101238.20
2018-07-12T03:02:07.052Z,101242.34
2018-07-12T03:04:34.578Z,101237.58
2018-07-12T03:07:02.099Z,101238.13
2018-07-12T03:09:29.631Z,101239.83
2018-07-12T03:11:57.170Z,101244.55
2018-07-12T03:14:24.704Z,101240.67
2018-07-12T03:16:52.241Z,101246.94
2018-07-12T03:19:19.750Z,101246.86
2018-07-12T03:21:47.271Z,101243.05
2018-07-12T03:24:14.764Z,101247.64
2018-07-12T03:26:42.313Z,101251.99
2018-07-12T03:29:09.780Z,101245.27
2018-07-12T03:31:37.314Z,101245.43
2018-07-12T03:34:04.901Z,101249.19
2018-07-12T03:36:32.384Z,101249.81
2018-07-12T03:38:59.855Z,101252.16
2018-07-12T03:41:27.393Z,101250.11
2018-07-12T03:43:54.932Z,101251.91
2018-07-12T03:46:22.476Z,101251.83
2018-07-12T03:48:49.992Z,101251.98
2018-07-12T03:51:17.656Z,101253.49
2018-07-12T03:53:45.206Z,101258.30
2018-07-12T03:56:12.821Z,101254.83
2018-07-12T03:58:40.286Z,101246.92
2018-07-12T04:01:07.788Z,101247.55
2018-07-12T04:03:35.320Z,101252.34
2018-07-12T04:06:02.850Z,101251.59
2018-07-12T04:08:30.367Z,101247.49
2018-07-12T04:10:57.883Z,101252.25
2018-07-12T04:13:25.383Z,101258.69
2018-07-12T04:15:52.842Z,101254.84
2018-07-12T04:18:20.344Z,101252.16
2018-07-12T04:20:47.818Z,101260.22
2018-07-12T04:23:15.338Z,101250.88
2018-07-12T04:25:42.875Z,101252.27
2018-07-12T04:28:10.396Z,101252.55
2018-07-12T04:30:37.896Z,101251.47
2018-07-12T04:33:05.403Z,101253.22
2018-07-12T04:35:32.884Z,101256.81
2018-07-12T04:38:00.569Z,101259.11
2018-07-12T04:40:28.083Z,101255.27
2018-07-12T04:42:55.586Z,101253.34
2018-07-12T04:45:23.044Z,101258.17
2018-07-12T04:47:50.534Z,101252.77
2018-07-12T04:50:17.994Z,101255.96
2018-07-12T04:52:45.537Z,101252.19
2018-07-12T04:55:12.994Z,101250.37
2018-07-12T04:57:40.515Z,101249.14
2018-07-12T05:00:08.019Z,101247.14
2018-07-12T05:02:35.555Z,101246.00
2018-07-12T05:05:03.081Z,101238.50
2018-07-12T05:07:30.601Z,101243.11
2018-07-12T05:09:58.089Z,101252.11
2018-07-12T05:12:25.576Z,101250.61
2018-07-12T05:14:53.043Z,101251.52
2018-07-12T05:17:20.574Z,101252.98
2018-07-12T05:19:48.043Z,101243.91
2018-07-12T05:22:15.555Z,101244.99
2018-07-12T05:24:43.036Z,101245.05
2018-07-12T05:27:10.576Z,101248.25
2018-07-12T05:29:38.118Z,101249.83
2018-07-12T05:32:05.636Z,101246.45
2018-07-12T05:34:33.076Z,101254.56
2018-07-12T05:37:02.427Z,101248.62
2018-07-12T05:39:31.234Z,101249.52
2018-07-12T05:42:00.050Z,101255.02
2018-07-12T05:44:28.870Z,101251.70
2018-07-12T05:46:57.759Z,101257.52
2018-07-12T05:49:26.622Z,101271.41
2018-07-12T05:51:55.506Z,101281.19
2018-07-12T05:54:24.332Z,101274.23
2018-07-12T05:56:53.108Z,101281.44
2018-07-12T05:59:22.436Z,101281.41
2018-07-12T06:02:02.369Z,101285.70
2018-07-12T06:04:31.213Z,101285.27
2018-07-12T06:07:00.033Z,101281.67
2018-07-12T06:09:28.863Z,101276.36
2018-07-12T06:11:57.671Z,101279.95
2018-07-12T06:14:26.729Z,101281.52
2018-07-12T06:16:55.588Z,101285.50
2018-07-12T06:19:24.457Z,101290.95
2018-07-12T06:21:53.226Z,101298.55
2018-07-12T06:24:22.183Z,101309.09
2018-07-12T06:26:51.099Z,101308.84
2018-07-12T06:29:19.996Z,101308.41
2018-07-12T06:31:48.902Z,101313.66
2018-07-12T06:34:17.737Z,101302.89
2018-07-12T06:36:46.566Z,101310.42
2018-07-12T06:39:15.448Z,101315.30
2018-07-12T06:41:44.279Z,101317.11
2018-07-12T06:44:14.652Z,101313.30
2018-07-12T06:46:43.521Z,101313.30
2018-07-12T06:49:12.701Z,101312.26
2018-07-12T06:51:41.583Z,101310.34
2018-07-12T06:54:10.522Z,101308.58
2018-07-12T06:56:39.477Z,101309.94
2018-07-12T06:59:08.517Z,101312.84
2018-07-12T07:01:37.553Z,101314.46
2018-07-12T07:04:06.476Z,101317.23
2018-07-12T07:06:35.490Z,101311.45
2018-07-12T07:09:05.614Z,101308.91
2018-07-12T07:11:34.503Z,101304.53
2018-07-12T07:14:03.373Z,101303.45
2018-07-12T07:16:34.280Z,101308.53
2018-07-12T07:19:03.338Z,101314.41
2018-07-12T07:21:32.432Z,101308.66
2018-07-12T07:24:01.697Z,101300.78
2018-07-12T07:26:30.701Z,101305.59
2018-07-12T07:28:59.710Z,101309.97
2018-07-12T07:31:28.741Z,101305.91
2018-07-12T07:33:57.757Z,101307.00
2018-07-12T07:36:26.760Z,101306.05
2018-07-12T07:38:55.801Z,101306.84
2018-07-12T07:41:24.848Z,101316.31
2018-07-12T07:43:53.779Z,101313.84
2018-07-12T07:46:23.063Z,101320.20
2018-07-12T07:48:52.085Z,101315.70
2018-07-12T07:51:21.026Z,101318.48
2018-07-12T07:56:40.047Z,101318.59
2018-07-12T07:59:08.970Z,101326.11
2018-07-12T08:01:38.060Z,101333.13
2018-07-12T08:04:07.025Z,101326.92
2018-07-12T08:06:36.204Z,101328.82
2018-07-12T08:09:06.565Z,101327.05
2018-07-12T08:11:35.519Z,101328.19
2018-07-12T08:14:04.415Z,101323.97
2018-07-12T08:16:33.314Z,101323.11
2018-07-12T08:19:02.356Z,101315.20
2018-07-12T08:21:31.305Z,101310.77
2018-07-12T08:24:00.320Z,101307.80
2018-07-12T08:26:29.185Z,101308.13
2018-07-12T08:28:58.031Z,101306.73
2018-07-12T08:31:27.036Z,101307.73
2018-07-12T08:33:55.993Z,101310.94
2018-07-12T08:36:25.017Z,101311.37
2018-07-12T08:38:54.055Z,101315.51
2018-07-12T08:41:23.043Z,101312.65
2018-07-12T08:43:52.158Z,101317.60
2018-07-12T08:46:21.200Z,101320.63
2018-07-12T08:48:50.081Z,101315.93
2018-07-12T08:51:19.121Z,101314.27
2018-07-12T08:53:48.063Z,101316.30
2018-07-12T08:56:17.069Z,101315.97
2018-07-12T08:58:46.113Z,101315.21
2018-07-12T09:01:15.007Z,101315.91
2018-07-12T09:03:45.031Z,101313.86
2018-07-12T09:06:33.280Z,101322.41
2018-07-12T09:16:49.052Z,101313.25
2018-07-12T09:19:41.995Z,101306.83
2018-07-12T09:22:11.739Z,101300.21
2018-07-12T09:24:40.676Z,101308.88
2018-07-12T09:27:09.888Z,101304.39
2018-07-12T09:29:38.811Z,101310.20
2018-07-12T09:32:07.885Z,101308.77
2018-07-12T09:34:36.888Z,101307.61
2018-07-12T09:37:05.951Z,101305.91
2018-07-12T09:39:35.276Z,101305.44
2018-07-12T09:42:04.184Z,101309.66
2018-07-12T09:44:33.260Z,101310.37
2018-07-12T09:47:02.206Z,101306.52
2018-07-12T09:49:31.182Z,101304.36
2018-07-12T09:52:00.093Z,101307.38
2018-07-12T09:54:29.090Z,101304.75
2018-07-12T09:57:08.853Z,101306.58
2018-07-12T09:59:37.812Z,101306.70
2018-07-12T10:02:11.692Z,101308.23
2018-07-12T10:04:40.675Z,101309.92
2018-07-12T10:07:14.876Z,101313.46
2018-07-12T10:09:48.922Z,101301.37
2018-07-12T10:12:23.056Z,101309.52
2018-07-12T10:14:56.141Z,101307.34
2018-07-12T10:17:30.142Z,101297.14
2018-07-12T10:19:59.120Z,101305.27
2018-07-12T10:22:28.013Z,101309.21
2018-07-12T10:24:57.095Z,101309.07
2018-07-12T10:27:26.138Z,101317.34
2018-07-12T10:29:55.200Z,101314.27
2018-07-12T10:32:24.223Z,101313.34
2018-07-12T10:34:53.293Z,101312.67
2018-07-12T10:37:22.276Z,101310.55
2018-07-12T10:39:51.191Z,101309.48
2018-07-12T10:42:20.261Z,101308.50
2018-07-12T10:44:49.311Z,101318.20
2018-07-12T10:47:18.376Z,101308.10
2018-07-12T10:49:47.453Z,101303.50
2018-07-12T10:52:16.452Z,101308.10
2018-07-12T10:54:45.538Z,101296.97
2018-07-12T10:57:14.540Z,101307.70
2018-07-12T10:59:43.613Z,101310.23
2018-07-12T11:02:12.593Z,101301.92
2018-07-12T11:04:41.734Z,101297.99
2018-07-12T11:07:10.763Z,101298.16
2018-07-12T11:09:39.973Z,101287.98
2018-07-12T11:12:08.865Z,101295.59
2018-07-12T11:14:37.951Z,101294.78
2018-07-12T11:17:07.006Z,101298.14
2018-07-12T11:19:36.021Z,101292.84
2018-07-12T11:22:05.086Z,101290.27
2018-07-12T11:24:33.986Z,101296.76
2018-07-12T11:27:03.597Z,101294.89
2018-07-12T11:29:43.540Z,101299.71
2018-07-12T11:32:12.523Z,101302.99
2018-07-12T11:34:41.489Z,101306.52
2018-07-12T11:37:16.037Z,101298.77
2018-07-12T11:39:45.070Z,101301.69
2018-07-12T11:42:14.080Z,101303.23
2018-07-12T11:44:43.025Z,101292.52
2018-07-12T11:47:12.405Z,101283.66
2018-07-12T11:49:41.340Z,101290.03
2018-07-12T11:52:10.275Z,101287.94
2018-07-12T11:54:40.105Z,101291.64
2018-07-12T11:57:09.032Z,101291.94
2018-07-12T11:59:37.893Z,101296.55
2018-07-12T12:02:06.930Z,101290.49
2018-07-12T12:04:35.926Z,101293.92
2018-07-12T12:07:12.066Z,101287.84
2018-07-12T12:09:41.278Z,101282.02
2018-07-12T12:12:10.294Z,101283.54
2018-07-12T12:14:39.203Z,101282.33
2018-07-12T12:17:08.251Z,101275.94
2018-07-12T12:19:37.212Z,101271.14
2018-07-12T12:22:06.128Z,101270.48
2018-07-12T12:24:35.098Z,101263.53
2018-07-12T12:27:04.048Z,101263.48
2018-07-12T12:29:32.951Z,101270.16
2018-07-12T12:32:01.913Z,101270.87
2018-07-12T12:34:30.852Z,101265.37
2018-07-12T12:36:59.808Z,101261.98
2018-07-12T12:39:28.892Z,101263.19
2018-07-12T12:41:57.900Z,101247.78
2018-07-12T12:44:26.948Z,101247.13
2018-07-12T12:46:56.272Z,101260.72
2018-07-12T12:49:25.204Z,101260.57
2018-07-12T12:51:54.286Z,101258.25
2018-07-12T12:54:23.119Z,101250.52
2018-07-12T12:56:52.062Z,101251.70
2018-07-12T12:59:21.044Z,101255.51
2018-07-12T13:01:50.107Z,101252.48
2018-07-12T13:04:19.168Z,101256.30
2018-07-12T13:06:48.077Z,101254.22
2018-07-12T13:09:17.164Z,101255.84
2018-07-12T13:11:46.072Z,101246.55
2018-07-12T13:14:15.051Z,101251.66
2018-07-12T13:16:44.128Z,101249.34
2018-07-12T13:19:13.164Z,101244.39
2018-07-12T13:21:42.097Z,101236.56
2018-07-12T13:24:11.146Z,101244.13
2018-07-12T13:26:40.099Z,101233.20
2018-07-12T13:29:09.119Z,101232.64
2018-07-12T13:31:38.160Z,101227.47
2018-07-12T13:34:07.389Z,101230.31
2018-07-12T13:36:36.736Z,101237.89
2018-07-12T13:39:07.445Z,101236.40
2018-07-12T13:41:36.392Z,101245.84
2018-07-12T13:44:16.810Z,101237.55
2018-07-12T13:46:47.040Z,101235.45
2018-07-12T13:49:16.279Z,101235.66
2018-07-12T13:51:46.454Z,101243.66
2018-07-12T13:54:15.660Z,101232.12
2018-07-12T13:56:44.834Z,101245.34
2018-07-12T13:59:13.872Z,101241.69
2018-07-12T14:01:42.961Z,101248.72
2018-07-12T14:04:12.377Z,101241.69
2018-07-12T14:06:41.366Z,101233.02
2018-07-12T14:09:12.639Z,101245.06
2018-07-12T14:11:41.700Z,101235.06
2018-07-12T14:14:10.822Z,101244.25
2018-07-12T14:16:40.084Z,101237.07
2018-07-12T14:19:09.122Z,101231.59
2018-07-12T14:21:37.999Z,101234.93
2018-07-12T14:24:06.988Z,101237.77
2018-07-12T14:26:35.977Z,101243.87
2018-07-12T14:29:04.896Z,101235.69
2018-07-12T14:31:33.932Z,101235.95
2018-07-12T14:34:02.989Z,101231.46
2018-07-12T14:36:31.911Z,101228.62
2018-07-12T14:39:01.191Z,101226.84
2018-07-12T14:41:30.249Z,101229.05
2018-07-12T14:43:59.140Z,101226.45
2018-07-12T14:46:28.038Z,101231.92
2018-07-12T14:48:56.935Z,101221.70
2018-07-12T14:51:25.794Z,101227.13
2018-07-12T14:53:55.111Z,101228.40
2018-07-12T14:56:24.498Z,101231.58
2018-07-12T14:58:53.836Z,101228.69
2018-07-12T15:01:23.423Z,101229.64
2018-07-12T15:03:52.946Z,101231.70
2018-07-12T15:06:22.019Z,101229.52
2018-07-12T15:08:51.098Z,101227.00
2018-07-12T15:11:20.129Z,101228.00
2018-07-12T15:13:49.165Z,101233.41
2018-07-12T15:16:18.268Z,101224.84
2018-07-12T15:18:47.256Z,101226.95
2018-07-12T15:21:16.298Z,101227.59
2018-07-12T15:23:45.153Z,101228.23
2018-07-12T15:26:14.080Z,101226.09
2018-07-12T15:28:43.008Z,101228.45
2018-07-12T15:31:11.931Z,101222.50
2018-07-12T15:33:40.865Z,101223.05
2018-07-12T15:36:09.901Z,101224.31
2018-07-12T15:38:38.960Z,101228.91
2018-07-12T15:41:08.455Z,101229.38
2018-07-12T15:43:37.521Z,101230.31
2018-07-12T15:46:06.600Z,101239.41
2018-07-12T15:48:35.621Z,101235.38
2018-07-12T15:51:04.681Z,101245.27
2018-07-12T15:53:33.680Z,101237.95
2018-07-12T15:56:02.713Z,101240.73
2018-07-12T15:58:31.660Z,101238.17
2018-07-12T16:01:00.676Z,101244.30
2018-07-12T16:03:29.785Z,101235.42
2018-07-12T16:05:59.595Z,101231.04
2018-07-12T16:08:28.889Z,101232.63
2018-07-12T16:10:57.968Z,101235.30
2018-07-12T16:13:26.854Z,101236.52
2018-07-12T16:15:56.116Z,101234.94
2018-07-12T16:18:25.181Z,101228.66
2018-07-12T16:20:54.237Z,101232.72
2018-07-12T16:23:23.149Z,101232.84
2018-07-12T16:25:52.052Z,101232.23
2018-07-12T16:28:20.954Z,101240.67
2018-07-12T16:30:49.863Z,101234.18
2018-07-12T16:33:18.798Z,101237.75
2018-07-12T16:35:47.692Z,101238.04
2018-07-12T16:38:16.699Z,101240.37
2018-07-12T16:40:45.579Z,101235.28
2018-07-12T16:43:14.587Z,101239.62
2018-07-12T16:45:43.493Z,101238.41
2018-07-12T16:48:12.530Z,101238.76
2018-07-12T16:50:41.532Z,101247.16
2018-07-12T16:53:10.467Z,101240.59
2018-07-12T16:55:39.465Z,101239.53
2018-07-12T16:58:08.439Z,101242.84
2018-07-12T17:00:37.524Z,101241.39
2018-07-12T17:03:06.440Z,101240.00
2018-07-12T17:05:35.321Z,101245.10
2018-07-12T17:08:04.300Z,101244.75
2018-07-12T17:10:33.201Z,101240.41
2018-07-12T17:13:02.185Z,101245.16
2018-07-12T17:15:31.116Z,101246.82
2018-07-12T17:18:00.010Z,101251.07
2018-07-12T17:20:29.051Z,101262.15
2018-07-12T17:22:57.992Z,101258.31
2018-07-12T17:25:26.887Z,101259.34
2018-07-12T17:27:55.809Z,101260.53
2018-07-12T17:30:24.770Z,101258.11
2018-07-12T17:32:53.740Z,101258.43
2018-07-12T17:35:22.679Z,101255.94
2018-07-12T17:37:51.689Z,101257.92
2018-07-12T17:40:20.596Z,101261.67
2018-07-12T17:42:49.560Z,101263.63
2018-07-12T17:45:18.460Z,101267.20
2018-07-12T17:47:47.587Z,101256.62
2018-07-12T17:50:16.571Z,101260.15
2018-07-12T17:52:45.484Z,101260.39
2018-07-12T17:55:14.472Z,101261.84
2018-07-12T17:57:43.349Z,101260.73
2018-07-12T18:00:12.413Z,101255.55
2018-07-12T18:02:41.309Z,101261.66
2018-07-12T18:05:10.283Z,101260.97
2018-07-12T18:07:39.156Z,101265.91
2018-07-12T18:10:08.140Z,101269.59
2018-07-12T18:12:37.005Z,101267.36
2018-07-12T18:15:06.087Z,101272.53
2018-07-12T18:17:50.625Z,101274.06
2018-07-12T18:20:23.247Z,101276.59
2018-07-12T18:22:52.082Z,101277.31
2018-07-12T18:25:21.175Z,101287.92
2018-07-12T18:27:50.035Z,101295.22
2018-07-12T18:30:18.959Z,101294.64
2018-07-12T18:32:47.794Z,101300.69
2018-07-12T18:35:16.757Z,101305.39
2018-07-12T18:37:45.599Z,101315.65
2018-07-12T18:40:14.539Z,101317.54
2018-07-12T18:42:43.698Z,101322.20
2018-07-12T18:45:12.673Z,101325.50
2018-07-12T18:47:41.582Z,101333.67
2018-07-12T18:50:10.551Z,101331.98
2018-07-12T18:52:39.390Z,101336.44
2018-07-12T18:55:08.311Z,101337.52
2018-07-12T18:57:37.250Z,101341.09
2018-07-12T19:00:06.585Z,101343.25
2018-07-12T19:02:35.521Z,101347.89
2018-07-12T19:05:04.441Z,101345.32
2018-07-12T19:07:33.377Z,101349.13
2018-07-12T19:10:02.369Z,101354.06
2018-07-12T19:12:31.272Z,101354.52
2018-07-12T19:15:00.281Z,101359.40
2018-07-12T19:17:29.209Z,101365.41
2018-07-12T19:19:58.144Z,101364.72
2018-07-12T19:22:27.031Z,101369.32
2018-07-12T19:24:55.991Z,101373.69
2018-07-12T19:27:24.932Z,101371.11
2018-07-12T19:29:53.890Z,101371.06
2018-07-12T19:32:22.819Z,101384.27
2018-07-12T19:34:51.925Z,101384.06
2018-07-12T19:37:20.909Z,101396.36
2018-07-12T19:39:49.991Z,101393.98
2018-07-12T19:42:18.937Z,101398.09
2018-07-12T19:44:47.875Z,101399.09
2018-07-12T19:47:16.896Z,101398.45
2018-07-12T19:49:45.823Z,101398.38
2018-07-12T19:52:14.809Z,101408.05
2018-07-12T19:54:43.828Z,101412.20
2018-07-12T19:57:13.660Z,101410.20
2018-07-12T19:59:42.620Z,101413.70
2018-07-12T20:02:11.596Z,101413.36
2018-07-12T20:04:40.604Z,101412.73
2018-07-12T20:07:09.560Z,101414.41
2018-07-12T20:09:38.518Z,101423.50
2018-07-12T20:12:07.601Z,101424.55
2018-07-12T20:14:36.503Z,101424.94
2018-07-12T20:17:05.660Z,101420.94
2018-07-12T20:19:34.761Z,101425.31
2018-07-12T20:22:03.770Z,101433.36
2018-07-12T20:24:32.680Z,101433.08
2018-07-12T20:27:01.689Z,101434.06
2018-07-12T20:29:30.663Z,101430.04
2018-07-12T20:31:59.699Z,101431.31
2018-07-12T20:34:28.742Z,101429.64
2018-07-12T20:36:57.703Z,101433.66
2018-07-12T20:39:26.619Z,101436.29
2018-07-12T20:41:55.478Z,101438.71
2018-07-12T20:44:24.379Z,101438.94
2018-07-12T20:46:53.702Z,101442.58
2018-07-12T20:49:22.644Z,101446.39
2018-07-12T20:51:51.584Z,101446.53
2018-07-12T20:54:20.476Z,101447.79
2018-07-12T20:56:49.634Z,101451.38
2018-07-12T20:59:18.522Z,101455.11
2018-07-12T21:01:47.491Z,101458.50
2018-07-12T21:04:16.322Z,101463.10
2018-07-12T21:06:45.204Z,101466.41
2018-07-12T21:09:14.020Z,101460.61
2018-07-12T21:11:42.875Z,101456.03
2018-07-12T21:14:11.756Z,101461.13
2018-07-12T21:16:40.593Z,101461.09
2018-07-12T21:19:09.467Z,101464.95
2018-07-12T21:21:38.308Z,101462.48
2018-07-12T21:24:07.182Z,101458.62
2018-07-12T21:26:36.039Z,101466.34
2018-07-12T21:29:04.972Z,101465.44
2018-07-12T21:31:33.869Z,101475.30
2018-07-12T21:34:02.785Z,101472.16
2018-07-12T21:36:31.689Z,101461.33
2018-07-12T21:39:00.532Z,101472.56
2018-07-12T21:41:29.371Z,101471.91
2018-07-12T21:43:58.528Z,101471.08
2018-07-12T21:46:27.312Z,101474.02
2018-07-12T21:48:56.215Z,101473.66
2018-07-12T21:51:25.218Z,101470.45
2018-07-12T21:53:54.424Z,101474.84
2018-07-12T21:56:23.286Z,101473.49
2018-07-12T21:58:52.268Z,101468.39
2018-07-12T22:01:21.209Z,101469.48
2018-07-12T22:03:50.267Z,101468.61
2018-07-12T22:06:24.898Z,101470.23
2018-07-12T22:08:53.829Z,101475.69
2018-07-12T22:11:22.750Z,101481.63
2018-07-12T22:13:51.979Z,101481.73
2018-07-12T22:16:20.792Z,101479.59
2018-07-12T22:18:49.656Z,101478.67
2018-07-12T22:21:18.536Z,101481.06
2018-07-12T22:23:47.638Z,101476.46
2018-07-12T22:26:16.514Z,101475.62
2018-07-12T22:28:45.402Z,101470.64
2018-07-12T22:31:14.466Z,101476.16
2018-07-12T22:33:43.332Z,101478.30
2018-07-12T22:36:12.373Z,101478.26
2018-07-12T22:38:41.318Z,101480.64
2018-07-12T22:41:10.433Z,101476.12
2018-07-12T22:43:39.394Z,101479.81
2018-07-12T22:46:08.605Z,101477.13
2018-07-12T22:48:37.685Z,101472.16
2018-07-12T22:51:06.753Z,101479.83
2018-07-12T22:53:35.685Z,101487.18
2018-07-12T22:56:04.784Z,101481.73
2018-07-12T22:58:33.726Z,101480.91
2018-07-12T23:01:02.805Z,101486.55
2018-07-12T23:03:31.754Z,101485.41
2018-07-12T23:06:00.692Z,101487.03
2018-07-12T23:08:29.824Z,101491.02
2018-07-12T23:10:58.946Z,101482.89
2018-07-12T23:13:27.981Z,101485.38
2018-07-12T23:15:57.006Z,101485.39
2018-07-12T23:18:25.956Z,101485.45
2018-07-12T23:20:54.916Z,101486.14
2018-07-12T23:23:23.921Z,101489.25
2018-07-12T23:25:53.079Z,101488.41
2018-07-12T23:28:21.991Z,101490.05
2018-07-12T23:30:51.257Z,101493.28
2018-07-12T23:33:20.348Z,101492.16
2018-07-12T23:35:49.322Z,101494.12
2018-07-12T23:38:18.251Z,101498.39
2018-07-12T23:40:47.205Z,101500.31
2018-07-12T23:43:16.126Z,101495.09
2018-07-12T23:45:45.101Z,101493.84
2018-07-12T23:48:14.047Z,101493.01
2018-07-12T23:50:43.106Z,101500.87
2018-07-12T23:53:12.107Z,101498.79
2018-07-12T23:55:41.270Z,101500.37
2018-07-12T23:58:10.284Z,101501.44
